createdAt,value
2022-08-27T00:01:56.192Z,35.43
2022-08-27T00:04:22.855Z,39.30
2022-08-27T00:06:49.304Z,34.20
2022-08-27T00:09:15.726Z,35.33
2022-08-27T00:11:45.055Z,31.97
2022-08-27T00:14:11.576Z,34.80
2022-08-27T00:16:38.136Z,36.23
2022-08-27T00:19:04.844Z,36.50
2022-08-27T00:21:33.042Z,39.07
2022-08-27T00:23:59.847Z,33.97
2022-08-27T00:26:26.356Z,34.23
2022-08-27T00:28:52.760Z,30.83
2022-08-27T00:31:19.310Z,30.47
2022-08-27T00:33:50.065Z,31.63
2022-08-27T00:36:16.432Z,29.63
2022-08-27T00:38:42.942Z,35.03
2022-08-27T00:41:10.635Z,32.03
2022-08-27T00:43:50.072Z,30.67
2022-08-27T00:46:22.023Z,27.90
2022-08-27T00:48:49.087Z,30.33
2022-08-27T00:51:15.606Z,27.63
2022-08-27T00:53:41.991Z,30.03
2022-08-27T00:56:09.828Z,29.27
2022-08-27T00:58:38.211Z,29.43
2022-08-27T01:01:06.779Z,30.30
2022-08-27T01:03:33.315Z,31.60
2022-08-27T01:06:01.563Z,30.10
2022-08-27T01:08:29.213Z,30.07
2022-08-27T01:10:57.916Z,31.93
2022-08-27T01:13:58.735Z,28.40
2022-08-27T01:16:16.417Z,29.23
2022-08-27T01:18:44.586Z,26.80
2022-08-27T01:21:29.451Z,28.87
2022-08-27T01:24:14.787Z,30.80
2022-08-27T01:26:41.425Z,31.37
2022-08-27T01:29:08.184Z,26.67
2022-08-27T01:31:34.682Z,31.53
2022-08-27T01:34:03.760Z,27.27
2022-08-27T01:36:30.438Z,29.10
2022-08-27T01:38:57.536Z,26.30
2022-08-27T01:41:24.292Z,26.60
2022-08-27T01:43:50.705Z,26.53
2022-08-27T01:46:26.954Z,25.87
2022-08-27T01:48:53.430Z,31.93
2022-08-27T01:51:20.330Z,25.97
2022-08-27T01:53:48.129Z,25.47
2022-08-27T01:56:15.362Z,28.87
2022-08-27T01:58:43.689Z,27.27
2022-08-27T02:01:12.090Z,29.03
2022-08-27T02:03:40.013Z,31.90
2022-08-27T02:06:08.168Z,33.77
2022-08-27T02:08:34.641Z,33.67
2022-08-27T02:11:01.556Z,37.90
2022-08-27T02:13:28.111Z,32.63
2022-08-27T02:15:54.975Z,33.93
2022-08-27T02:18:21.591Z,31.03
2022-08-27T02:20:48.522Z,34.00
2022-08-27T02:23:15.949Z,36.70
2022-08-27T02:25:42.555Z,33.57
2022-08-27T02:28:09.653Z,31.07
2022-08-27T02:30:37.263Z,35.93
2022-08-27T02:33:05.359Z,34.27
2022-08-27T02:35:33.201Z,30.97
2022-08-27T02:37:59.969Z,28.60
2022-08-27T02:40:26.853Z,29.40
2022-08-27T02:42:53.480Z,25.40
2022-08-27T02:45:20.685Z,26.07
2022-08-27T02:47:48.115Z,26.60
2022-08-27T02:50:14.948Z,23.17
2022-08-27T02:52:41.840Z,21.93
2022-08-27T02:55:08.578Z,25.73
2022-08-27T02:57:36.795Z,21.70
2022-08-27T03:00:09.133Z,22.73
2022-08-27T03:02:36.625Z,23.00
2022-08-27T03:05:03.191Z,23.33
2022-08-27T03:07:29.619Z,22.97
2022-08-27T03:09:55.984Z,23.97
2022-08-27T03:12:22.782Z,23.13
2022-08-27T03:14:51.257Z,24.73
2022-08-27T03:17:36.372Z,27.13
2022-08-27T03:20:04.303Z,23.53
2022-08-27T03:22:30.712Z,22.70
2022-08-27T03:24:57.075Z,22.03
2022-08-27T03:27:23.519Z,24.20
2022-08-27T03:29:49.888Z,24.97
2022-08-27T03:32:16.295Z,23.00
2022-08-27T03:34:42.635Z,23.57
2022-08-27T03:37:09.011Z,25.67
2022-08-27T03:39:35.384Z,20.07
2022-08-27T03:42:02.007Z,20.90
2022-08-27T03:44:28.539Z,17.67
2022-08-27T03:46:55.089Z,17.83
2022-08-27T03:49:21.915Z,17.87
2022-08-27T03:51:49.561Z,13.53
2022-08-27T03:54:16.101Z,13.80
2022-08-27T03:56:42.509Z,11.30
2022-08-27T03:59:08.981Z,10.30
2022-08-27T04:01:35.854Z,10.00
2022-08-27T04:04:02.417Z,11.37
2022-08-27T04:06:28.810Z,9.07
2022-08-27T04:08:55.221Z,10.50
2022-08-27T04:11:22.074Z,10.70
2022-08-27T04:13:48.552Z,8.60
2022-08-27T04:16:15.318Z,8.83
2022-08-27T04:18:41.898Z,7.50
2022-08-27T04:21:09.150Z,8.43
2022-08-27T04:23:35.541Z,7.70
2022-08-27T04:26:05.169Z,7.73
2022-08-27T04:28:36.421Z,9.23
2022-08-27T04:31:05.050Z,6.53
2022-08-27T04:33:32.426Z,6.97
2022-08-27T04:36:03.080Z,6.27
2022-08-27T04:38:29.505Z,6.87
2022-08-27T04:41:14.479Z,6.67
2022-08-27T04:43:40.932Z,8.17
2022-08-27T04:46:07.719Z,6.73
2022-08-27T04:48:34.667Z,7.10
2022-08-27T04:51:04.889Z,6.07
2022-08-27T04:53:31.271Z,6.93
2022-08-27T04:55:57.646Z,6.97
2022-08-27T04:58:25.135Z,7.30
2022-08-27T05:00:53.533Z,6.33
2022-08-27T05:03:22.097Z,7.63
2022-08-27T05:05:48.442Z,6.10
2022-08-27T05:08:15.295Z,5.80
2022-08-27T05:10:46.134Z,6.67
2022-08-27T05:13:12.866Z,6.70
2022-08-27T05:15:39.893Z,6.13
2022-08-27T05:18:07.410Z,6.33
2022-08-27T05:20:34.555Z,6.70
2022-08-27T05:23:00.944Z,6.47
2022-08-27T05:25:27.425Z,5.70
2022-08-27T05:27:53.811Z,6.10
2022-08-27T05:30:20.839Z,6.23
2022-08-27T05:32:47.245Z,6.70
2022-08-27T05:35:15.831Z,6.07
2022-08-27T05:37:42.816Z,6.20
2022-08-27T05:40:09.619Z,5.93
2022-08-27T05:42:36.121Z,5.87
2022-08-27T05:45:02.529Z,6.33
2022-08-27T05:47:29.254Z,6.73
2022-08-27T05:49:55.721Z,6.37
2022-08-27T05:52:22.155Z,6.33
2022-08-27T05:54:48.635Z,7.27
2022-08-27T05:57:15.067Z,7.07
2022-08-27T05:59:59.911Z,7.13
2022-08-27T06:02:26.393Z,6.70
2022-08-27T06:04:53.540Z,6.97
2022-08-27T06:07:20.167Z,6.93
2022-08-27T06:09:46.549Z,6.53
2022-08-27T06:12:12.958Z,6.93
2022-08-27T06:14:39.371Z,6.33
2022-08-27T06:17:06.421Z,6.90
2022-08-27T06:19:34.704Z,6.70
2022-08-27T06:22:10.591Z,7.10
2022-08-27T06:24:39.446Z,6.60
2022-08-27T06:27:06.063Z,6.50
2022-08-27T06:29:35.019Z,7.27
2022-08-27T06:32:01.747Z,7.73
2022-08-27T06:34:28.319Z,7.60
2022-08-27T06:36:54.990Z,9.07
2022-08-27T06:39:21.621Z,9.40
2022-08-27T06:41:50.148Z,9.70
2022-08-27T06:44:21.010Z,9.43
2022-08-27T06:46:47.522Z,10.33
2022-08-27T06:49:13.924Z,10.73
2022-08-27T06:51:43.064Z,11.00
2022-08-27T06:54:12.165Z,13.13
2022-08-27T06:56:38.885Z,13.23
2022-08-27T06:59:12.098Z,15.23
2022-08-27T07:01:40.124Z,14.70
2022-08-27T07:04:07.860Z,15.77
2022-08-27T07:06:34.869Z,20.70
2022-08-27T07:09:01.603Z,20.10
2022-08-27T07:11:29.118Z,19.20
2022-08-27T07:13:56.220Z,19.10
2022-08-27T07:16:23.974Z,18.03
2022-08-27T07:18:51.182Z,19.43
2022-08-27T07:21:20.036Z,21.97
2022-08-27T07:23:46.826Z,21.67
2022-08-27T07:26:13.990Z,20.23
2022-08-27T07:28:41.581Z,22.80
2022-08-27T07:31:09.220Z,26.70
2022-08-27T07:33:39.328Z,19.93
2022-08-27T07:36:08.610Z,19.07
2022-08-27T07:38:35.845Z,21.87
2022-08-27T07:41:05.864Z,15.83
2022-08-27T07:43:51.031Z,17.80
2022-08-27T07:46:23.571Z,18.93
2022-08-27T07:48:50.606Z,19.17
2022-08-27T07:51:18.603Z,15.87
2022-08-27T07:53:45.841Z,18.60
2022-08-27T07:56:13.128Z,19.23
2022-08-27T07:58:39.894Z,17.40
2022-08-27T08:01:06.424Z,20.60
2022-08-27T08:03:33.058Z,19.53
2022-08-27T08:06:03.721Z,18.37
2022-08-27T08:08:30.085Z,15.03
2022-08-27T08:10:59.280Z,18.83
2022-08-27T08:13:26.406Z,21.63
2022-08-27T08:15:52.796Z,20.03
2022-08-27T08:18:20.175Z,20.97
2022-08-27T08:20:57.981Z,20.83
2022-08-27T08:23:25.069Z,23.50
2022-08-27T08:25:51.471Z,22.93
2022-08-27T08:28:17.882Z,21.43
2022-08-27T08:30:44.436Z,24.73
2022-08-27T08:33:10.840Z,22.13
2022-08-27T08:35:41.305Z,20.13
2022-08-27T08:38:08.091Z,24.20
2022-08-27T08:40:36.590Z,20.73
2022-08-27T08:43:03.895Z,17.23
2022-08-27T08:45:32.091Z,19.83
2022-08-27T08:48:04.317Z,22.53
2022-08-27T08:50:35.323Z,22.00
2022-08-27T08:53:04.479Z,25.83
2022-08-27T08:55:30.849Z,23.77
2022-08-27T08:58:09.820Z,23.33
2022-08-27T09:00:37.355Z,24.30
2022-08-27T09:03:03.750Z,24.80
2022-08-27T09:05:31.015Z,24.70
2022-08-27T09:08:09.967Z,22.33
2022-08-27T09:10:47.140Z,24.97
2022-08-27T09:13:33.760Z,22.70
2022-08-27T09:16:02.009Z,20.10
2022-08-27T09:18:28.514Z,21.37
2022-08-27T09:21:02.029Z,21.03
2022-08-27T09:23:57.270Z,18.90
2022-08-27T09:26:25.317Z,22.67
2022-08-27T09:29:18.855Z,20.17
2022-08-27T09:32:04.959Z,20.47
2022-08-27T09:34:36.288Z,21.10
2022-08-27T09:37:02.664Z,17.73
2022-08-27T09:39:33.327Z,21.00
2022-08-27T09:41:59.842Z,18.77
2022-08-27T09:44:26.431Z,21.00
2022-08-27T09:46:54.350Z,18.80
2022-08-27T09:49:21.103Z,16.27
2022-08-27T09:51:47.959Z,18.40
2022-08-27T09:54:30.273Z,17.03
2022-08-27T09:56:59.013Z,17.47
2022-08-27T09:59:27.317Z,15.70
2022-08-27T10:01:55.559Z,16.80
2022-08-27T10:04:27.442Z,15.97
2022-08-27T10:06:54.647Z,17.10
2022-08-27T10:09:31.601Z,16.63
2022-08-27T10:12:17.743Z,17.30
2022-08-27T10:14:47.325Z,15.20
2022-08-27T10:17:32.305Z,15.00
2022-08-27T10:20:11.723Z,14.40
2022-08-27T10:23:01.583Z,14.83
2022-08-27T10:25:46.176Z,14.80
2022-08-27T10:28:21.471Z,16.43
2022-08-27T10:31:11.533Z,17.00
2022-08-27T10:33:54.613Z,15.97
2022-08-27T10:36:21.655Z,15.30
2022-08-27T10:39:14.760Z,14.67
2022-08-27T10:41:50.098Z,17.03
2022-08-27T10:44:28.401Z,17.40
2022-08-27T10:47:04.878Z,15.47
2022-08-27T10:49:43.480Z,15.60
2022-08-27T10:52:17.365Z,16.33
2022-08-27T10:54:48.077Z,15.40
2022-08-27T10:57:35.169Z,14.13
2022-08-27T11:00:14.068Z,13.37
2022-08-27T11:02:47.635Z,17.23
2022-08-27T11:05:23.277Z,15.30
2022-08-27T11:07:52.862Z,16.57
2022-08-27T11:10:24.408Z,15.57
2022-08-27T11:12:53.440Z,13.43
2022-08-27T11:15:26.829Z,18.73
2022-08-27T11:18:16.177Z,17.10
2022-08-27T11:20:57.488Z,14.67
2022-08-27T11:23:28.573Z,15.83
2022-08-27T11:29:53.342Z,14.43
2022-08-27T11:32:33.939Z,15.87
2022-08-27T11:35:03.216Z,13.20
2022-08-27T11:37:38.737Z,15.67
2022-08-27T11:40:23.474Z,14.13
2022-08-27T11:42:51.666Z,13.70
2022-08-27T11:45:17.986Z,11.70
2022-08-27T11:47:51.567Z,14.37
2022-08-27T11:50:19.432Z,13.60
2022-08-27T11:53:15.718Z,13.70
2022-08-27T11:55:42.542Z,11.63
2022-08-27T11:58:18.016Z,14.27
2022-08-27T12:00:45.586Z,12.63
2022-08-27T12:03:21.186Z,13.10
2022-08-27T12:05:53.385Z,12.40
2022-08-27T12:08:22.769Z,14.03
2022-08-27T12:11:09.412Z,11.17
2022-08-27T12:13:41.781Z,14.80
2022-08-27T12:16:12.578Z,12.20
2022-08-27T12:18:59.256Z,11.20
2022-08-27T12:21:44.668Z,11.00
2022-08-27T12:24:26.186Z,10.83
2022-08-27T12:27:00.920Z,9.67
2022-08-27T12:29:31.049Z,10.37
2022-08-27T12:32:16.253Z,10.67
2022-08-27T12:34:43.894Z,10.43
2022-08-27T12:37:11.801Z,9.57
2022-08-27T12:39:39.203Z,9.73
2022-08-27T12:42:12.384Z,9.77
2022-08-27T12:44:38.753Z,9.20
2022-08-27T12:47:07.625Z,9.80
2022-08-27T12:49:39.334Z,9.70
2022-08-27T12:52:14.837Z,10.47
2022-08-27T12:54:48.362Z,10.00
2022-08-27T12:57:22.003Z,8.20
2022-08-27T13:00:00.560Z,8.13
2022-08-27T13:02:31.138Z,7.50
2022-08-27T13:04:57.768Z,8.13
2022-08-27T13:07:32.965Z,8.03
2022-08-27T13:10:18.405Z,7.10
2022-08-27T13:12:45.352Z,7.83
2022-08-27T13:15:14.503Z,7.87
2022-08-27T13:17:44.274Z,7.05
2022-08-27T13:20:15.931Z,7.10
2022-08-27T13:22:43.582Z,6.75
2022-08-27T13:25:39.326Z,7.15
2022-08-27T13:28:11.454Z,6.03
2022-08-27T13:30:39.849Z,7.32
2022-08-27T13:33:07.526Z,8.60
2022-08-27T13:35:34.360Z,9.67
2022-08-27T13:38:02.487Z,7.63
2022-08-27T13:40:34.420Z,7.90
2022-08-27T13:43:08.783Z,7.80
2022-08-27T13:45:36.616Z,7.63
2022-08-27T13:48:03.162Z,7.40
2022-08-27T13:50:31.059Z,8.10
2022-08-27T13:53:22.094Z,7.50
2022-08-27T13:55:49.307Z,7.53
2022-08-27T13:58:20.152Z,7.50
2022-08-27T14:00:46.528Z,8.30
2022-08-27T14:03:33.241Z,8.23
2022-08-27T14:06:00.170Z,8.10
2022-08-27T14:08:32.336Z,8.90
2022-08-27T14:11:00.589Z,7.90
2022-08-27T14:13:28.733Z,7.77
2022-08-27T14:15:56.593Z,7.93
2022-08-27T14:18:42.133Z,8.40
2022-08-27T14:21:11.699Z,12.00
2022-08-27T14:23:38.089Z,8.00
2022-08-27T14:26:04.506Z,8.00
2022-08-27T14:28:31.962Z,10.40
2022-08-27T14:30:58.488Z,7.80
2022-08-27T14:33:24.945Z,8.13
2022-08-27T14:35:51.341Z,8.33
2022-08-27T14:38:19.628Z,8.30
2022-08-27T14:40:46.922Z,7.60
2022-08-27T14:43:13.705Z,8.07
2022-08-27T14:45:41.591Z,7.60
2022-08-27T14:48:18.688Z,8.17
2022-08-27T14:50:46.196Z,9.27
2022-08-27T14:53:14.201Z,9.87
2022-08-27T14:55:40.592Z,8.37
2022-08-27T14:58:07.034Z,8.87
2022-08-27T15:00:33.660Z,10.67
2022-08-27T15:03:00.072Z,9.23
2022-08-27T15:05:26.597Z,9.33
2022-08-27T15:07:54.639Z,10.27
2022-08-27T15:10:21.110Z,11.30
2022-08-27T15:12:47.516Z,9.83
2022-08-27T15:15:14.736Z,9.20
2022-08-27T15:17:41.358Z,9.30
2022-08-27T15:20:10.081Z,9.20
2022-08-27T15:22:44.970Z,9.60
2022-08-27T15:25:12.194Z,9.17
2022-08-27T15:27:39.215Z,9.57
2022-08-27T15:30:07.486Z,10.00
2022-08-27T15:32:35.042Z,9.87
2022-08-27T15:35:04.810Z,9.43
2022-08-27T15:37:31.321Z,9.83
2022-08-27T15:39:57.965Z,9.07
2022-08-27T15:42:24.541Z,9.60
2022-08-27T15:44:52.549Z,9.60
2022-08-27T15:47:19.753Z,10.97
2022-08-27T15:49:46.435Z,10.60
2022-08-27T15:52:16.087Z,9.70
2022-08-27T15:54:43.340Z,12.27
2022-08-27T15:57:09.902Z,11.03
2022-08-27T15:59:36.368Z,11.23
2022-08-27T16:02:04.604Z,11.50
2022-08-27T16:04:31.030Z,10.40
2022-08-27T16:06:57.441Z,13.07
2022-08-27T16:09:23.939Z,11.47
2022-08-27T16:11:50.303Z,13.40
2022-08-27T16:14:17.003Z,11.77
2022-08-27T16:16:45.039Z,14.13
2022-08-27T16:19:14.813Z,12.60
2022-08-27T16:21:43.021Z,12.93
2022-08-27T16:24:09.480Z,13.43
2022-08-27T16:26:37.479Z,12.77
2022-08-27T16:29:04.967Z,13.20
2022-08-27T16:31:32.763Z,13.40
2022-08-27T16:33:59.869Z,15.00
2022-08-27T16:36:26.441Z,13.67
2022-08-27T16:38:52.907Z,14.03
2022-08-27T16:41:19.948Z,13.70
2022-08-27T16:43:48.509Z,12.00
2022-08-27T16:46:14.951Z,12.93
2022-08-27T16:49:01.355Z,13.00
2022-08-27T16:51:33.182Z,14.73
2022-08-27T16:54:05.789Z,13.77
2022-08-27T16:56:37.056Z,12.20
2022-08-27T16:59:04.796Z,11.67
2022-08-27T17:01:31.449Z,12.20
2022-08-27T17:04:09.203Z,11.23
2022-08-27T17:06:37.936Z,12.50
2022-08-27T17:09:06.213Z,12.53
2022-08-27T17:11:33.233Z,10.27
2022-08-27T17:14:02.158Z,12.03
2022-08-27T17:16:29.714Z,11.37
2022-08-27T17:18:58.283Z,10.53
2022-08-27T17:21:29.608Z,11.80
2022-08-27T17:23:59.132Z,11.57
2022-08-27T17:26:26.149Z,11.43
2022-08-27T17:28:53.011Z,11.00
2022-08-27T17:31:26.125Z,11.20
2022-08-27T17:33:55.215Z,10.77
2022-08-27T17:36:22.580Z,11.23
2022-08-27T17:38:53.840Z,10.60
2022-08-27T17:41:20.215Z,10.60
2022-08-27T17:43:46.653Z,9.83
2022-08-27T17:46:13.742Z,10.97
2022-08-27T17:48:40.689Z,11.60
2022-08-27T17:51:08.578Z,11.60
2022-08-27T17:53:35.001Z,11.90
2022-08-27T17:56:01.605Z,12.33
2022-08-27T17:58:28.122Z,11.43
2022-08-27T18:00:54.587Z,12.67
2022-08-27T18:03:21.544Z,12.33
2022-08-27T18:05:48.349Z,12.37
2022-08-27T18:08:15.082Z,12.30
2022-08-27T18:10:42.951Z,12.90
2022-08-27T18:13:10.401Z,13.47
2022-08-27T18:15:38.794Z,13.77
2022-08-27T18:18:05.593Z,12.83
2022-08-27T18:20:33.086Z,14.77
2022-08-27T18:23:00.013Z,13.17
2022-08-27T18:25:29.779Z,14.83
2022-08-27T18:28:00.901Z,13.17
2022-08-27T18:30:27.940Z,14.70
2022-08-27T18:32:54.530Z,13.57
2022-08-27T18:35:23.315Z,12.63
2022-08-27T18:37:50.189Z,15.23
2022-08-27T18:40:18.147Z,13.17
2022-08-27T18:42:45.109Z,14.83
2022-08-27T18:45:13.315Z,15.40
2022-08-27T18:47:40.221Z,15.37
2022-08-27T18:50:09.487Z,13.53
2022-08-27T18:52:44.312Z,15.50
2022-08-27T18:55:11.912Z,14.43
2022-08-27T18:57:38.374Z,14.63
2022-08-27T19:00:06.198Z,16.43
2022-08-27T19:02:33.231Z,14.13
2022-08-27T19:05:00.090Z,16.50
2022-08-27T19:07:29.713Z,17.90
2022-08-27T19:09:56.889Z,13.53
2022-08-27T19:12:23.983Z,15.23
2022-08-27T19:14:50.466Z,17.43
2022-08-27T19:17:25.143Z,14.17
2022-08-27T19:19:52.479Z,14.80
2022-08-27T19:22:19.071Z,14.57
2022-08-27T19:24:47.515Z,13.80
2022-08-27T19:27:15.530Z,14.30
2022-08-27T19:29:42.059Z,16.43
2022-08-27T19:32:08.547Z,14.27
2022-08-27T19:34:35.102Z,15.20
2022-08-27T19:37:02.050Z,17.50
2022-08-27T19:39:28.533Z,13.93
2022-08-27T19:41:55.186Z,16.17
2022-08-27T19:44:21.613Z,16.20
2022-08-27T19:46:49.649Z,13.43
2022-08-27T19:49:16.029Z,14.63
2022-08-27T19:51:42.427Z,13.17
2022-08-27T19:54:08.793Z,16.07
2022-08-27T19:56:35.401Z,14.03
2022-08-27T19:59:16.249Z,13.00
2022-08-27T20:01:47.801Z,14.53
2022-08-27T20:04:14.288Z,15.07
2022-08-27T20:06:40.755Z,15.13
2022-08-27T20:09:09.672Z,13.67
2022-08-27T20:11:36.105Z,14.87
2022-08-27T20:14:02.533Z,14.47
2022-08-27T20:16:28.977Z,13.00
2022-08-27T20:18:59.667Z,12.03
2022-08-27T20:21:27.266Z,14.67
2022-08-27T20:23:53.816Z,13.40
2022-08-27T20:26:21.721Z,13.60
2022-08-27T20:28:49.635Z,13.70
2022-08-27T20:31:17.765Z,12.10
2022-08-27T20:33:44.640Z,13.43
2022-08-27T20:36:12.422Z,12.53
2022-08-27T20:38:39.138Z,13.70
2022-08-27T20:41:06.275Z,13.67
2022-08-27T20:43:32.961Z,12.30
2022-08-27T20:45:59.748Z,14.70
2022-08-27T20:48:26.190Z,12.57
2022-08-27T20:50:52.551Z,14.43
2022-08-27T20:53:18.951Z,12.37
2022-08-27T20:55:45.320Z,12.27
2022-08-27T20:58:30.209Z,12.60
2022-08-27T21:00:57.369Z,14.57
2022-08-27T21:03:24.052Z,13.37
2022-08-27T21:05:50.672Z,12.10
2022-08-27T21:08:18.179Z,11.83
2022-08-27T21:10:51.856Z,12.03
2022-08-27T21:13:19.084Z,12.37
2022-08-27T21:15:45.451Z,13.30
2022-08-27T21:18:12.610Z,12.63
2022-08-27T21:20:39.305Z,11.97
2022-08-27T21:23:05.812Z,12.43
2022-08-27T21:25:32.177Z,11.40
2022-08-27T21:28:00.272Z,12.47
2022-08-27T21:30:27.165Z,13.37
2022-08-27T21:32:57.073Z,12.30
2022-08-27T21:35:26.369Z,11.00
2022-08-27T21:37:53.864Z,12.03
2022-08-27T21:40:20.578Z,11.50
2022-08-27T21:42:47.720Z,11.37
2022-08-27T21:45:14.248Z,14.03
2022-08-27T21:47:44.627Z,10.57
2022-08-27T21:50:11.166Z,11.03
2022-08-27T21:52:37.828Z,11.53
2022-08-27T21:55:04.592Z,10.57
2022-08-27T21:57:31.043Z,10.50
2022-08-27T21:59:57.495Z,10.33
2022-08-27T22:02:40.760Z,10.90
2022-08-27T22:05:07.716Z,13.57
2022-08-27T22:07:34.120Z,9.67
2022-08-27T22:10:00.499Z,10.33
2022-08-27T22:12:26.873Z,10.83
2022-08-27T22:14:53.283Z,9.30
2022-08-27T22:17:19.638Z,10.03
2022-08-27T22:19:46.129Z,10.60
2022-08-27T22:22:12.517Z,10.97
2022-08-27T22:24:38.929Z,9.37
2022-08-27T22:27:05.343Z,12.40
2022-08-27T22:29:31.840Z,9.97
2022-08-27T22:31:58.343Z,10.13
2022-08-27T22:34:24.792Z,9.97
2022-08-27T22:36:51.310Z,11.03
2022-08-27T22:39:17.675Z,9.83
2022-08-27T22:41:46.137Z,12.47
2022-08-27T22:44:15.137Z,11.83
2022-08-27T22:46:41.603Z,11.87
2022-08-27T22:49:08.142Z,11.57
2022-08-27T22:51:34.540Z,12.53
2022-08-27T22:54:00.913Z,10.33
2022-08-27T22:56:27.376Z,11.60
2022-08-27T22:58:53.765Z,9.53
2022-08-27T23:01:20.796Z,11.63
2022-08-27T23:03:47.666Z,9.63
2022-08-27T23:06:14.128Z,11.10
2022-08-27T23:08:40.505Z,10.63
2022-08-27T23:11:06.924Z,14.07
2022-08-27T23:13:33.762Z,12.67
2022-08-27T23:16:01.444Z,11.13
2022-08-27T23:18:28.091Z,11.70
2022-08-27T23:20:55.021Z,12.03
2022-08-27T23:23:21.388Z,12.80
2022-08-27T23:26:06.571Z,11.27
2022-08-27T23:28:32.941Z,11.20
2022-08-27T23:30:59.916Z,11.10
2022-08-27T23:33:26.300Z,10.73
2022-08-27T23:35:52.687Z,14.13
2022-08-27T23:38:19.720Z,10.70
2022-08-27T23:40:46.455Z,11.90
2022-08-27T23:43:13.945Z,11.07
2022-08-27T23:45:40.709Z,11.27
2022-08-27T23:48:07.652Z,11.80
2022-08-27T23:50:34.984Z,11.00
2022-08-27T23:53:01.919Z,14.20
2022-08-27T23:55:28.400Z,11.87
2022-08-27T23:57:57.569Z,12.00
